sensor_id;sensor_type;location;lat;lon;timestamp;P1;durP1;ratioP1;P2;durP2;ratioP2
33844;SDS011;20145;43.118;25.694;2023-12-14T00:01:29;6.40;;;5.32;;
33844;SDS011;20145;43.118;25.694;2023-12-14T00:03:55;5.40;;;4.65;;
33844;SDS011;20145;43.118;25.694;2023-12-14T00:06:20;8.25;;;4.50;;
33844;SDS011;20145;43.118;25.694;2023-12-14T00:08:46;6.25;;;4.45;;
33844;SDS011;20145;43.118;25.694;2023-12-14T00:11:11;6.07;;;4.57;;
33844;SDS011;20145;43.118;25.694;2023-12-14T00:13:37;6.85;;;4.70;;
33844;SDS011;20145;43.118;25.694;2023-12-14T00:16:03;5.00;;;4.07;;
33844;SDS011;20145;43.118;25.694;2023-12-14T00:18:30;6.43;;;4.47;;
33844;SDS011;20145;43.118;25.694;2023-12-14T00:20:55;7.65;;;5.07;;
33844;SDS011;20145;43.118;25.694;2023-12-14T00:23:21;5.40;;;4.68;;
33844;SDS011;20145;43.118;25.694;2023-12-14T00:25:48;5.65;;;4.80;;
33844;SDS011;20145;43.118;25.694;2023-12-14T00:28:13;9.75;;;6.13;;
33844;SDS011;20145;43.118;25.694;2023-12-14T00:30:39;9.35;;;6.28;;
33844;SDS011;20145;43.118;25.694;2023-12-14T00:33:05;10.02;;;6.30;;
33844;SDS011;20145;43.118;25.694;2023-12-14T00:35:30;7.93;;;5.97;;
33844;SDS011;20145;43.118;25.694;2023-12-14T00:37:56;8.00;;;5.65;;
33844;SDS011;20145;43.118;25.694;2023-12-14T00:40:22;8.85;;;6.57;;
33844;SDS011;20145;43.118;25.694;2023-12-14T00:42:47;7.47;;;5.63;;
33844;SDS011;20145;43.118;25.694;2023-12-14T00:45:13;7.80;;;6.50;;
33844;SDS011;20145;43.118;25.694;2023-12-14T00:47:39;16.13;;;11.38;;
33844;SDS011;20145;43.118;25.694;2023-12-14T00:50:04;14.45;;;11.35;;
33844;SDS011;20145;43.118;25.694;2023-12-14T00:52:30;11.75;;;7.95;;
33844;SDS011;20145;43.118;25.694;2023-12-14T00:54:56;7.97;;;6.25;;
33844;SDS011;20145;43.118;25.694;2023-12-14T00:57:22;6.57;;;4.75;;
33844;SDS011;20145;43.118;25.694;2023-12-14T00:59:48;4.63;;;4.22;;
33844;SDS011;20145;43.118;25.694;2023-12-14T01:02:14;4.70;;;4.13;;
33844;SDS011;20145;43.118;25.694;2023-12-14T01:04:40;6.47;;;4.15;;
33844;SDS011;20145;43.118;25.694;2023-12-14T01:07:07;3.60;;;3.30;;
33844;SDS011;20145;43.118;25.694;2023-12-14T01:09:33;6.05;;;4.07;;
33844;SDS011;20145;43.118;25.694;2023-12-14T01:11:58;4.00;;;3.60;;
33844;SDS011;20145;43.118;25.694;2023-12-14T01:14:24;5.13;;;3.85;;
33844;SDS011;20145;43.118;25.694;2023-12-14T01:16:50;5.25;;;4.07;;
33844;SDS011;20145;43.118;25.694;2023-12-14T01:19:16;6.93;;;4.88;;
33844;SDS011;20145;43.118;25.694;2023-12-14T01:21:41;6.07;;;5.45;;
33844;SDS011;20145;43.118;25.694;2023-12-14T01:24:10;6.88;;;5.55;;
33844;SDS011;20145;43.118;25.694;2023-12-14T01:26:36;8.13;;;6.22;;
33844;SDS011;20145;43.118;25.694;2023-12-14T01:29:01;6.97;;;4.85;;
33844;SDS011;20145;43.118;25.694;2023-12-14T01:31:27;7.13;;;5.43;;
33844;SDS011;20145;43.118;25.694;2023-12-14T01:33:53;9.80;;;5.72;;
33844;SDS011;20145;43.118;25.694;2023-12-14T01:36:25;5.43;;;4.60;;
33844;SDS011;20145;43.118;25.694;2023-12-14T01:38:52;5.03;;;4.53;;
33844;SDS011;20145;43.118;25.694;2023-12-14T01:41:18;4.95;;;3.92;;
33844;SDS011;20145;43.118;25.694;2023-12-14T01:43:44;5.50;;;3.90;;
33844;SDS011;20145;43.118;25.694;2023-12-14T01:46:10;5.20;;;4.20;;
33844;SDS011;20145;43.118;25.694;2023-12-14T01:48:36;4.78;;;3.70;;
33844;SDS011;20145;43.118;25.694;2023-12-14T01:51:02;4.72;;;3.83;;
33844;SDS011;20145;43.118;25.694;2023-12-14T01:53:28;4.07;;;3.67;;
33844;SDS011;20145;43.118;25.694;2023-12-14T01:55:54;4.38;;;3.55;;
33844;SDS011;20145;43.118;25.694;2023-12-14T01:58:20;3.78;;;3.47;;
33844;SDS011;20145;43.118;25.694;2023-12-14T02:00:49;4.03;;;3.63;;
33844;SDS011;20145;43.118;25.694;2023-12-14T02:03:34;6.45;;;4.40;;
33844;SDS011;20145;43.118;25.694;2023-12-14T02:05:59;6.82;;;5.10;;
33844;SDS011;20145;43.118;25.694;2023-12-14T02:08:27;5.05;;;4.22;;
33844;SDS011;20145;43.118;25.694;2023-12-14T02:10:53;4.90;;;4.28;;
33844;SDS011;20145;43.118;25.694;2023-12-14T02:13:18;5.38;;;4.47;;
33844;SDS011;20145;43.118;25.694;2023-12-14T02:15:44;4.35;;;3.90;;
33844;SDS011;20145;43.118;25.694;2023-12-14T02:18:10;4.50;;;3.90;;
33844;SDS011;20145;43.118;25.694;2023-12-14T02:20:35;5.10;;;3.60;;
33844;SDS011;20145;43.118;25.694;2023-12-14T02:23:01;6.50;;;3.58;;
33844;SDS011;20145;43.118;25.694;2023-12-14T02:25:27;4.63;;;4.05;;
33844;SDS011;20145;43.118;25.694;2023-12-14T02:27:53;5.25;;;4.55;;
33844;SDS011;20145;43.118;25.694;2023-12-14T02:30:19;6.30;;;4.13;;
33844;SDS011;20145;43.118;25.694;2023-12-14T02:32:45;10.50;;;6.07;;
33844;SDS011;20145;43.118;25.694;2023-12-14T02:35:10;5.50;;;4.43;;
33844;SDS011;20145;43.118;25.694;2023-12-14T02:37:36;5.10;;;3.97;;
33844;SDS011;20145;43.118;25.694;2023-12-14T02:40:03;5.80;;;4.50;;
33844;SDS011;20145;43.118;25.694;2023-12-14T02:42:29;4.60;;;3.70;;
33844;SDS011;20145;43.118;25.694;2023-12-14T02:44:55;4.93;;;4.00;;
33844;SDS011;20145;43.118;25.694;2023-12-14T02:47:21;6.90;;;4.43;;
33844;SDS011;20145;43.118;25.694;2023-12-14T02:49:47;4.43;;;4.00;;
33844;SDS011;20145;43.118;25.694;2023-12-14T02:52:12;5.25;;;4.25;;
33844;SDS011;20145;43.118;25.694;2023-12-14T02:54:38;3.42;;;2.85;;
33844;SDS011;20145;43.118;25.694;2023-12-14T02:57:04;4.43;;;2.80;;
33844;SDS011;20145;43.118;25.694;2023-12-14T02:59:30;4.80;;;3.63;;
33844;SDS011;20145;43.118;25.694;2023-12-14T03:01:55;2.60;;;2.40;;
33844;SDS011;20145;43.118;25.694;2023-12-14T03:04:21;5.50;;;3.78;;
33844;SDS011;20145;43.118;25.694;2023-12-14T03:06:47;3.78;;;3.17;;
33844;SDS011;20145;43.118;25.694;2023-12-14T03:09:12;5.30;;;4.05;;
33844;SDS011;20145;43.118;25.694;2023-12-14T03:11:38;5.03;;;3.97;;
33844;SDS011;20145;43.118;25.694;2023-12-14T03:14:04;4.90;;;3.80;;
33844;SDS011;20145;43.118;25.694;2023-12-14T03:16:29;4.18;;;3.65;;
33844;SDS011;20145;43.118;25.694;2023-12-14T03:18:55;4.65;;;3.92;;
33844;SDS011;20145;43.118;25.694;2023-12-14T03:21:22;5.85;;;3.58;;
33844;SDS011;20145;43.118;25.694;2023-12-14T03:23:49;4.88;;;3.20;;
33844;SDS011;20145;43.118;25.694;2023-12-14T03:26:15;4.00;;;3.28;;
33844;SDS011;20145;43.118;25.694;2023-12-14T03:28:41;4.03;;;3.70;;
33844;SDS011;20145;43.118;25.694;2023-12-14T03:31:07;4.38;;;3.80;;
33844;SDS011;20145;43.118;25.694;2023-12-14T03:33:36;4.05;;;3.35;;
33844;SDS011;20145;43.118;25.694;2023-12-14T03:36:02;5.85;;;3.28;;
33844;SDS011;20145;43.118;25.694;2023-12-14T03:38:28;3.13;;;2.78;;
33844;SDS011;20145;43.118;25.694;2023-12-14T03:40:54;3.03;;;2.80;;
33844;SDS011;20145;43.118;25.694;2023-12-14T03:43:20;4.93;;;3.40;;
33844;SDS011;20145;43.118;25.694;2023-12-14T03:45:46;3.55;;;2.78;;
33844;SDS011;20145;43.118;25.694;2023-12-14T03:48:11;6.68;;;3.13;;
33844;SDS011;20145;43.118;25.694;2023-12-14T03:50:37;7.15;;;4.45;;
33844;SDS011;20145;43.118;25.694;2023-12-14T03:53:03;7.13;;;5.07;;
33844;SDS011;20145;43.118;25.694;2023-12-14T03:55:29;3.22;;;2.88;;
33844;SDS011;20145;43.118;25.694;2023-12-14T03:57:54;4.90;;;3.55;;
33844;SDS011;20145;43.118;25.694;2023-12-14T04:00:20;3.72;;;3.33;;
33844;SDS011;20145;43.118;25.694;2023-12-14T04:02:46;4.65;;;4.07;;
33844;SDS011;20145;43.118;25.694;2023-12-14T04:05:12;4.13;;;3.35;;
33844;SDS011;20145;43.118;25.694;2023-12-14T04:07:38;3.55;;;3.25;;
33844;SDS011;20145;43.118;25.694;2023-12-14T04:10:07;5.32;;;3.45;;
33844;SDS011;20145;43.118;25.694;2023-12-14T04:12:34;3.63;;;3.17;;
33844;SDS011;20145;43.118;25.694;2023-12-14T04:15:01;4.53;;;3.28;;
33844;SDS011;20145;43.118;25.694;2023-12-14T04:17:27;5.53;;;3.70;;
33844;SDS011;20145;43.118;25.694;2023-12-14T04:19:53;4.57;;;3.33;;
33844;SDS011;20145;43.118;25.694;2023-12-14T04:22:18;4.07;;;3.30;;
33844;SDS011;20145;43.118;25.694;2023-12-14T04:24:47;5.22;;;3.67;;
33844;SDS011;20145;43.118;25.694;2023-12-14T04:27:14;3.80;;;3.50;;
33844;SDS011;20145;43.118;25.694;2023-12-14T04:29:40;3.88;;;3.00;;
33844;SDS011;20145;43.118;25.694;2023-12-14T04:32:05;5.63;;;3.30;;
33844;SDS011;20145;43.118;25.694;2023-12-14T04:34:31;3.97;;;3.58;;
33844;SDS011;20145;43.118;25.694;2023-12-14T04:36:57;5.85;;;3.55;;
33844;SDS011;20145;43.118;25.694;2023-12-14T04:39:26;5.00;;;3.70;;
33844;SDS011;20145;43.118;25.694;2023-12-14T04:41:52;4.95;;;4.45;;
33844;SDS011;20145;43.118;25.694;2023-12-14T04:44:18;4.72;;;3.95;;
33844;SDS011;20145;43.118;25.694;2023-12-14T04:46:45;13.02;;;5.00;;
33844;SDS011;20145;43.118;25.694;2023-12-14T04:49:10;7.38;;;4.72;;
33844;SDS011;20145;43.118;25.694;2023-12-14T04:51:36;8.60;;;5.80;;
33844;SDS011;20145;43.118;25.694;2023-12-14T04:54:02;11.30;;;7.57;;
33844;SDS011;20145;43.118;25.694;2023-12-14T04:56:28;9.45;;;6.95;;
33844;SDS011;20145;43.118;25.694;2023-12-14T04:58:54;8.05;;;6.65;;
33844;SDS011;20145;43.118;25.694;2023-12-14T05:01:21;5.82;;;5.10;;
33844;SDS011;20145;43.118;25.694;2023-12-14T05:03:57;6.45;;;5.40;;
33844;SDS011;20145;43.118;25.694;2023-12-14T05:06:23;9.27;;;5.03;;
33844;SDS011;20145;43.118;25.694;2023-12-14T05:08:49;5.88;;;5.00;;
33844;SDS011;20145;43.118;25.694;2023-12-14T05:11:14;6.20;;;5.57;;
33844;SDS011;20145;43.118;25.694;2023-12-14T05:13:40;6.70;;;6.00;;
33844;SDS011;20145;43.118;25.694;2023-12-14T05:16:06;17.85;;;14.32;;
33844;SDS011;20145;43.118;25.694;2023-12-14T05:18:37;16.98;;;14.52;;
33844;SDS011;20145;43.118;25.694;2023-12-14T05:21:03;14.73;;;11.82;;
33844;SDS011;20145;43.118;25.694;2023-12-14T05:23:30;12.00;;;7.70;;
33844;SDS011;20145;43.118;25.694;2023-12-14T05:25:55;10.48;;;8.48;;
33844;SDS011;20145;43.118;25.694;2023-12-14T05:28:21;14.55;;;8.43;;
33844;SDS011;20145;43.118;25.694;2023-12-14T05:30:47;9.77;;;7.55;;
33844;SDS011;20145;43.118;25.694;2023-12-14T05:33:13;14.60;;;9.10;;
33844;SDS011;20145;43.118;25.694;2023-12-14T05:35:39;8.80;;;5.32;;
33844;SDS011;20145;43.118;25.694;2023-12-14T05:38:06;7.75;;;6.10;;
33844;SDS011;20145;43.118;25.694;2023-12-14T05:40:31;14.60;;;7.28;;
33844;SDS011;20145;43.118;25.694;2023-12-14T05:42:57;10.65;;;6.95;;
33844;SDS011;20145;43.118;25.694;2023-12-14T05:45:23;11.38;;;8.88;;
33844;SDS011;20145;43.118;25.694;2023-12-14T05:47:48;11.02;;;9.57;;
33844;SDS011;20145;43.118;25.694;2023-12-14T05:50:14;15.55;;;12.35;;
33844;SDS011;20145;43.118;25.694;2023-12-14T05:52:40;14.95;;;10.50;;
33844;SDS011;20145;43.118;25.694;2023-12-14T05:55:09;12.43;;;10.13;;
33844;SDS011;20145;43.118;25.694;2023-12-14T05:57:37;11.77;;;6.38;;
33844;SDS011;20145;43.118;25.694;2023-12-14T06:00:03;15.45;;;7.65;;
33844;SDS011;20145;43.118;25.694;2023-12-14T06:02:32;32.28;;;24.33;;
33844;SDS011;20145;43.118;25.694;2023-12-14T06:04:58;10.60;;;6.53;;
33844;SDS011;20145;43.118;25.694;2023-12-14T06:07:24;6.63;;;5.50;;
33844;SDS011;20145;43.118;25.694;2023-12-14T06:09:50;7.60;;;3.58;;
33844;SDS011;20145;43.118;25.694;2023-12-14T06:12:16;5.97;;;5.30;;
33844;SDS011;20145;43.118;25.694;2023-12-14T06:14:41;10.77;;;6.20;;
33844;SDS011;20145;43.118;25.694;2023-12-14T06:17:07;6.03;;;5.43;;
33844;SDS011;20145;43.118;25.694;2023-12-14T06:19:33;11.93;;;3.15;;
33844;SDS011;20145;43.118;25.694;2023-12-14T06:21:58;5.88;;;4.13;;
33844;SDS011;20145;43.118;25.694;2023-12-14T06:24:24;3.20;;;2.90;;
33844;SDS011;20145;43.118;25.694;2023-12-14T06:26:50;2.95;;;2.33;;
33844;SDS011;20145;43.118;25.694;2023-12-14T06:29:16;3.75;;;2.03;;
33844;SDS011;20145;43.118;25.694;2023-12-14T06:31:44;2.50;;;2.15;;
33844;SDS011;20145;43.118;25.694;2023-12-14T06:34:12;2.55;;;1.75;;
33844;SDS011;20145;43.118;25.694;2023-12-14T06:36:41;3.00;;;2.28;;
33844;SDS011;20145;43.118;25.694;2023-12-14T06:39:09;5.50;;;2.83;;
33844;SDS011;20145;43.118;25.694;2023-12-14T06:44:18;4.78;;;2.95;;
33844;SDS011;20145;43.118;25.694;2023-12-14T06:46:46;12.15;;;4.72;;
33844;SDS011;20145;43.118;25.694;2023-12-14T06:49:12;7.03;;;3.47;;
33844;SDS011;20145;43.118;25.694;2023-12-14T06:54:09;4.50;;;3.58;;
33844;SDS011;20145;43.118;25.694;2023-12-14T06:56:38;4.50;;;3.38;;
33844;SDS011;20145;43.118;25.694;2023-12-14T06:59:04;4.45;;;2.85;;
33844;SDS011;20145;43.118;25.694;2023-12-14T07:01:31;2.97;;;2.10;;
33844;SDS011;20145;43.118;25.694;2023-12-14T07:04:06;3.05;;;2.10;;
33844;SDS011;20145;43.118;25.694;2023-12-14T07:06:41;2.92;;;1.80;;
33844;SDS011;20145;43.118;25.694;2023-12-14T07:09:08;6.50;;;1.88;;
33844;SDS011;20145;43.118;25.694;2023-12-14T07:11:35;3.00;;;2.53;;
33844;SDS011;20145;43.118;25.694;2023-12-14T07:14:01;2.97;;;2.10;;
33844;SDS011;20145;43.118;25.694;2023-12-14T07:16:29;5.60;;;3.70;;
33844;SDS011;20145;43.118;25.694;2023-12-14T07:18:54;4.55;;;2.33;;
33844;SDS011;20145;43.118;25.694;2023-12-14T07:21:27;5.20;;;3.20;;
33844;SDS011;20145;43.118;25.694;2023-12-14T07:23:52;5.43;;;3.92;;
33844;SDS011;20145;43.118;25.694;2023-12-14T07:26:19;11.65;;;4.63;;
33844;SDS011;20145;43.118;25.694;2023-12-14T07:28:45;12.65;;;4.55;;
33844;SDS011;20145;43.118;25.694;2023-12-14T07:31:12;5.65;;;4.60;;
33844;SDS011;20145;43.118;25.694;2023-12-14T07:33:40;8.27;;;5.25;;
33844;SDS011;20145;43.118;25.694;2023-12-14T07:36:06;7.30;;;5.70;;
33844;SDS011;20145;43.118;25.694;2023-12-14T07:38:32;9.98;;;6.30;;
33844;SDS011;20145;43.118;25.694;2023-12-14T07:40:57;10.50;;;8.02;;
33844;SDS011;20145;43.118;25.694;2023-12-14T07:43:23;14.20;;;9.48;;
33844;SDS011;20145;43.118;25.694;2023-12-14T07:45:49;12.50;;;11.20;;
33844;SDS011;20145;43.118;25.694;2023-12-14T07:48:15;14.82;;;11.20;;
33844;SDS011;20145;43.118;25.694;2023-12-14T07:50:40;17.35;;;13.70;;
33844;SDS011;20145;43.118;25.694;2023-12-14T07:53:06;19.73;;;14.23;;
33844;SDS011;20145;43.118;25.694;2023-12-14T07:55:32;22.45;;;14.75;;
33844;SDS011;20145;43.118;25.694;2023-12-14T07:57:58;20.52;;;14.63;;
33844;SDS011;20145;43.118;25.694;2023-12-14T08:00:23;20.83;;;15.40;;
33844;SDS011;20145;43.118;25.694;2023-12-14T08:02:49;21.73;;;16.27;;
33844;SDS011;20145;43.118;25.694;2023-12-14T08:05:15;22.13;;;15.32;;
33844;SDS011;20145;43.118;25.694;2023-12-14T08:07:41;18.92;;;15.25;;
33844;SDS011;20145;43.118;25.694;2023-12-14T08:10:07;21.00;;;15.77;;
33844;SDS011;20145;43.118;25.694;2023-12-14T08:12:33;20.58;;;16.33;;
33844;SDS011;20145;43.118;25.694;2023-12-14T08:14:58;23.25;;;17.13;;
33844;SDS011;20145;43.118;25.694;2023-12-14T08:17:24;21.42;;;17.27;;
33844;SDS011;20145;43.118;25.694;2023-12-14T08:19:50;17.25;;;12.90;;
33844;SDS011;20145;43.118;25.694;2023-12-14T08:22:16;17.40;;;12.15;;
33844;SDS011;20145;43.118;25.694;2023-12-14T08:24:41;18.77;;;13.20;;
33844;SDS011;20145;43.118;25.694;2023-12-14T08:27:07;13.50;;;11.70;;
33844;SDS011;20145;43.118;25.694;2023-12-14T08:29:33;13.38;;;10.98;;
33844;SDS011;20145;43.118;25.694;2023-12-14T08:31:59;15.00;;;11.98;;
33844;SDS011;20145;43.118;25.694;2023-12-14T08:34:25;14.95;;;11.70;;
33844;SDS011;20145;43.118;25.694;2023-12-14T08:36:51;13.35;;;10.80;;
33844;SDS011;20145;43.118;25.694;2023-12-14T08:39:17;14.75;;;11.45;;
33844;SDS011;20145;43.118;25.694;2023-12-14T08:41:43;15.63;;;12.05;;
33844;SDS011;20145;43.118;25.694;2023-12-14T08:44:10;13.82;;;10.80;;
33844;SDS011;20145;43.118;25.694;2023-12-14T08:46:40;11.15;;;9.48;;
33844;SDS011;20145;43.118;25.694;2023-12-14T08:49:07;16.08;;;10.57;;
33844;SDS011;20145;43.118;25.694;2023-12-14T08:51:33;12.93;;;10.85;;
33844;SDS011;20145;43.118;25.694;2023-12-14T08:53:59;16.48;;;12.45;;
33844;SDS011;20145;43.118;25.694;2023-12-14T08:56:24;19.77;;;13.25;;
33844;SDS011;20145;43.118;25.694;2023-12-14T08:58:50;17.60;;;13.60;;
33844;SDS011;20145;43.118;25.694;2023-12-14T09:01:19;19.60;;;14.23;;
33844;SDS011;20145;43.118;25.694;2023-12-14T09:03:46;17.55;;;15.52;;
33844;SDS011;20145;43.118;25.694;2023-12-14T09:06:12;28.95;;;14.65;;
33844;SDS011;20145;43.118;25.694;2023-12-14T09:08:37;31.83;;;14.55;;
33844;SDS011;20145;43.118;25.694;2023-12-14T09:11:05;16.00;;;12.85;;
33844;SDS011;20145;43.118;25.694;2023-12-14T09:13:30;20.95;;;16.05;;
33844;SDS011;20145;43.118;25.694;2023-12-14T09:15:56;19.83;;;15.85;;
33844;SDS011;20145;43.118;25.694;2023-12-14T09:18:22;23.45;;;17.05;;
33844;SDS011;20145;43.118;25.694;2023-12-14T09:20:48;21.05;;;15.68;;
33844;SDS011;20145;43.118;25.694;2023-12-14T09:23:15;21.85;;;16.80;;
33844;SDS011;20145;43.118;25.694;2023-12-14T09:25:41;23.42;;;18.10;;
33844;SDS011;20145;43.118;25.694;2023-12-14T09:28:07;22.42;;;17.55;;
33844;SDS011;20145;43.118;25.694;2023-12-14T09:30:33;24.23;;;19.40;;
33844;SDS011;20145;43.118;25.694;2023-12-14T09:32:59;30.15;;;20.15;;
33844;SDS011;20145;43.118;25.694;2023-12-14T09:35:24;26.85;;;18.30;;
33844;SDS011;20145;43.118;25.694;2023-12-14T09:37:50;27.83;;;19.33;;
33844;SDS011;20145;43.118;25.694;2023-12-14T09:40:17;27.80;;;17.65;;
33844;SDS011;20145;43.118;25.694;2023-12-14T09:42:43;26.23;;;18.85;;
33844;SDS011;20145;43.118;25.694;2023-12-14T09:45:10;24.80;;;17.65;;
33844;SDS011;20145;43.118;25.694;2023-12-14T09:47:37;37.75;;;17.55;;
33844;SDS011;20145;43.118;25.694;2023-12-14T09:50:03;22.95;;;15.93;;
33844;SDS011;20145;43.118;25.694;2023-12-14T09:52:31;20.52;;;15.98;;
33844;SDS011;20145;43.118;25.694;2023-12-14T09:54:58;22.08;;;15.73;;
33844;SDS011;20145;43.118;25.694;2023-12-14T09:57:24;20.70;;;16.83;;
33844;SDS011;20145;43.118;25.694;2023-12-14T09:59:52;22.13;;;17.83;;
33844;SDS011;20145;43.118;25.694;2023-12-14T10:02:18;24.98;;;17.88;;
33844;SDS011;20145;43.118;25.694;2023-12-14T10:04:45;26.15;;;19.10;;
33844;SDS011;20145;43.118;25.694;2023-12-14T10:07:12;30.85;;;20.98;;
33844;SDS011;20145;43.118;25.694;2023-12-14T10:09:37;29.73;;;19.20;;
33844;SDS011;20145;43.118;25.694;2023-12-14T10:12:08;25.98;;;18.08;;
33844;SDS011;20145;43.118;25.694;2023-12-14T10:14:35;24.52;;;18.55;;
33844;SDS011;20145;43.118;25.694;2023-12-14T10:22:15;26.50;;;20.92;;
33844;SDS011;20145;43.118;25.694;2023-12-14T10:24:51;30.02;;;21.42;;
33844;SDS011;20145;43.118;25.694;2023-12-14T10:27:17;27.85;;;21.85;;
33844;SDS011;20145;43.118;25.694;2023-12-14T10:29:43;27.27;;;20.85;;
33844;SDS011;20145;43.118;25.694;2023-12-14T10:32:10;29.75;;;21.40;;
33844;SDS011;20145;43.118;25.694;2023-12-14T10:37:06;32.63;;;20.40;;
33844;SDS011;20145;43.118;25.694;2023-12-14T10:39:35;27.85;;;20.73;;
33844;SDS011;20145;43.118;25.694;2023-12-14T10:42:04;28.23;;;18.43;;
33844;SDS011;20145;43.118;25.694;2023-12-14T10:44:37;28.17;;;20.65;;
33844;SDS011;20145;43.118;25.694;2023-12-14T10:47:04;93.03;;;50.95;;
33844;SDS011;20145;43.118;25.694;2023-12-14T10:49:34;42.13;;;26.15;;
33844;SDS011;20145;43.118;25.694;2023-12-14T10:52:16;26.35;;;19.92;;
33844;SDS011;20145;43.118;25.694;2023-12-14T10:54:58;27.20;;;19.83;;
33844;SDS011;20145;43.118;25.694;2023-12-14T11:00:07;29.38;;;21.75;;
33844;SDS011;20145;43.118;25.694;2023-12-14T11:02:45;30.33;;;22.20;;
33844;SDS011;20145;43.118;25.694;2023-12-14T11:05:21;31.27;;;22.30;;
33844;SDS011;20145;43.118;25.694;2023-12-14T11:07:55;27.27;;;19.65;;
33844;SDS011;20145;43.118;25.694;2023-12-14T11:10:27;26.05;;;18.45;;
33844;SDS011;20145;43.118;25.694;2023-12-14T11:13:02;21.10;;;16.25;;
33844;SDS011;20145;43.118;25.694;2023-12-14T11:15:33;22.33;;;16.77;;
33844;SDS011;20145;43.118;25.694;2023-12-14T11:20:55;22.30;;;16.75;;
33844;SDS011;20145;43.118;25.694;2023-12-14T11:25:53;23.05;;;19.67;;
33844;SDS011;20145;43.118;25.694;2023-12-14T11:28:21;24.73;;;17.88;;
33844;SDS011;20145;43.118;25.694;2023-12-14T11:30:47;23.80;;;20.48;;
33844;SDS011;20145;43.118;25.694;2023-12-14T11:33:13;19.10;;;15.38;;
33844;SDS011;20145;43.118;25.694;2023-12-14T11:35:40;23.45;;;19.52;;
33844;SDS011;20145;43.118;25.694;2023-12-14T11:38:06;16.23;;;12.13;;
33844;SDS011;20145;43.118;25.694;2023-12-14T11:40:39;17.17;;;14.13;;
33844;SDS011;20145;43.118;25.694;2023-12-14T11:43:06;28.70;;;19.73;;
33844;SDS011;20145;43.118;25.694;2023-12-14T11:45:33;29.58;;;20.80;;
33844;SDS011;20145;43.118;25.694;2023-12-14T11:48:01;26.17;;;18.35;;
33844;SDS011;20145;43.118;25.694;2023-12-14T11:50:31;90.03;;;50.92;;
33844;SDS011;20145;43.118;25.694;2023-12-14T11:53:01;103.50;;;55.80;;
33844;SDS011;20145;43.118;25.694;2023-12-14T11:55:30;60.15;;;33.25;;
33844;SDS011;20145;43.118;25.694;2023-12-14T11:58:00;67.20;;;34.70;;
33844;SDS011;20145;43.118;25.694;2023-12-14T12:00:26;34.65;;;19.50;;
33844;SDS011;20145;43.118;25.694;2023-12-14T12:03:12;38.28;;;21.50;;
33844;SDS011;20145;43.118;25.694;2023-12-14T12:05:43;97.50;;;45.05;;
33844;SDS011;20145;43.118;25.694;2023-12-14T12:08:11;109.97;;;49.65;;
33844;SDS011;20145;43.118;25.694;2023-12-14T12:10:39;117.93;;;52.00;;
33844;SDS011;20145;43.118;25.694;2023-12-14T12:13:13;166.15;;;72.22;;
33844;SDS011;20145;43.118;25.694;2023-12-14T12:15:39;42.85;;;21.58;;
33844;SDS011;20145;43.118;25.694;2023-12-14T12:18:05;19.50;;;12.10;;
33844;SDS011;20145;43.118;25.694;2023-12-14T12:20:32;17.25;;;12.55;;
33844;SDS011;20145;43.118;25.694;2023-12-14T12:22:58;57.65;;;29.45;;
33844;SDS011;20145;43.118;25.694;2023-12-14T12:25:24;27.90;;;18.08;;
33844;SDS011;20145;43.118;25.694;2023-12-14T12:27:52;42.22;;;23.48;;
33844;SDS011;20145;43.118;25.694;2023-12-14T12:30:17;47.50;;;27.90;;
33844;SDS011;20145;43.118;25.694;2023-12-14T12:32:45;39.58;;;24.77;;
33844;SDS011;20145;43.118;25.694;2023-12-14T12:35:10;41.08;;;24.90;;
33844;SDS011;20145;43.118;25.694;2023-12-14T12:37:36;34.95;;;21.55;;
33844;SDS011;20145;43.118;25.694;2023-12-14T12:40:02;27.77;;;18.23;;
33844;SDS011;20145;43.118;25.694;2023-12-14T12:42:28;35.95;;;21.67;;
33844;SDS011;20145;43.118;25.694;2023-12-14T12:44:54;16.58;;;12.82;;
33844;SDS011;20145;43.118;25.694;2023-12-14T12:47:20;20.02;;;15.57;;
33844;SDS011;20145;43.118;25.694;2023-12-14T12:49:46;15.95;;;11.18;;
33844;SDS011;20145;43.118;25.694;2023-12-14T12:52:11;17.27;;;12.50;;
33844;SDS011;20145;43.118;25.694;2023-12-14T12:54:39;14.80;;;11.75;;
33844;SDS011;20145;43.118;25.694;2023-12-14T12:57:05;19.48;;;13.10;;
33844;SDS011;20145;43.118;25.694;2023-12-14T12:59:31;20.33;;;13.40;;
33844;SDS011;20145;43.118;25.694;2023-12-14T13:01:57;29.77;;;21.25;;
33844;SDS011;20145;43.118;25.694;2023-12-14T13:04:23;24.38;;;20.42;;
33844;SDS011;20145;43.118;25.694;2023-12-14T13:06:49;27.80;;;20.50;;
33844;SDS011;20145;43.118;25.694;2023-12-14T13:09:16;28.42;;;19.65;;
33844;SDS011;20145;43.118;25.694;2023-12-14T13:11:44;23.98;;;19.80;;
33844;SDS011;20145;43.118;25.694;2023-12-14T13:14:10;36.53;;;26.13;;
33844;SDS011;20145;43.118;25.694;2023-12-14T13:16:37;32.28;;;22.35;;
33844;SDS011;20145;43.118;25.694;2023-12-14T13:19:04;40.92;;;22.52;;
33844;SDS011;20145;43.118;25.694;2023-12-14T13:21:31;30.27;;;20.95;;
33844;SDS011;20145;43.118;25.694;2023-12-14T13:23:59;28.40;;;20.17;;
33844;SDS011;20145;43.118;25.694;2023-12-14T13:26:24;32.85;;;22.08;;
33844;SDS011;20145;43.118;25.694;2023-12-14T13:28:53;28.95;;;22.00;;
33844;SDS011;20145;43.118;25.694;2023-12-14T13:31:19;29.55;;;23.13;;
33844;SDS011;20145;43.118;25.694;2023-12-14T13:33:46;29.80;;;26.00;;
33844;SDS011;20145;43.118;25.694;2023-12-14T13:36:12;32.85;;;26.65;;
33844;SDS011;20145;43.118;25.694;2023-12-14T13:38:38;27.05;;;20.90;;
33844;SDS011;20145;43.118;25.694;2023-12-14T13:41:04;26.65;;;22.20;;
33844;SDS011;20145;43.118;25.694;2023-12-14T13:43:30;33.83;;;24.38;;
33844;SDS011;20145;43.118;25.694;2023-12-14T13:45:56;32.47;;;24.85;;
33844;SDS011;20145;43.118;25.694;2023-12-14T13:48:26;27.27;;;21.95;;
33844;SDS011;20145;43.118;25.694;2023-12-14T13:50:53;35.83;;;20.80;;
33844;SDS011;20145;43.118;25.694;2023-12-14T13:53:20;27.13;;;18.23;;
33844;SDS011;20145;43.118;25.694;2023-12-14T13:55:46;26.80;;;19.55;;
33844;SDS011;20145;43.118;25.694;2023-12-14T13:58:14;37.90;;;24.38;;
33844;SDS011;20145;43.118;25.694;2023-12-14T14:00:40;34.38;;;24.52;;
33844;SDS011;20145;43.118;25.694;2023-12-14T14:03:05;30.92;;;21.45;;
33844;SDS011;20145;43.118;25.694;2023-12-14T14:05:32;31.92;;;21.77;;
33844;SDS011;20145;43.118;25.694;2023-12-14T14:07:58;26.90;;;21.80;;
33844;SDS011;20145;43.118;25.694;2023-12-14T14:10:23;29.90;;;20.52;;
33844;SDS011;20145;43.118;25.694;2023-12-14T14:12:49;25.23;;;20.65;;
33844;SDS011;20145;43.118;25.694;2023-12-14T14:15:15;29.77;;;21.45;;
33844;SDS011;20145;43.118;25.694;2023-12-14T14:17:41;34.67;;;23.08;;
33844;SDS011;20145;43.118;25.694;2023-12-14T14:20:07;42.20;;;25.13;;
33844;SDS011;20145;43.118;25.694;2023-12-14T14:22:35;44.85;;;24.30;;
33844;SDS011;20145;43.118;25.694;2023-12-14T14:25:02;38.08;;;25.40;;
33844;SDS011;20145;43.118;25.694;2023-12-14T14:27:29;33.90;;;24.77;;
33844;SDS011;20145;43.118;25.694;2023-12-14T14:29:55;35.05;;;25.77;;
33844;SDS011;20145;43.118;25.694;2023-12-14T14:32:21;36.97;;;23.67;;
33844;SDS011;20145;43.118;25.694;2023-12-14T14:34:47;36.33;;;24.27;;
33844;SDS011;20145;43.118;25.694;2023-12-14T14:37:12;83.60;;;46.65;;
33844;SDS011;20145;43.118;25.694;2023-12-14T14:39:38;52.95;;;25.30;;